TimeMDT,TemperatureF,Dew PointF,Humidity,Sea Level PressureIn,VisibilityMPH,Wind Direction,Wind SpeedMPH,Gust SpeedMPH,PrecipitationIn,Events,Conditions,WindDirDegrees,DateUTC
12:53 AM,69.1,44.1,40,29.69,10.0,West,15.0,-,N/A,,Clear,270,2013-05-15 06:53:00
1:53 AM,66.9,45.0,45,29.68,10.0,West,11.5,-,N/A,,Clear,270,2013-05-15 07:53:00
2:53 AM,64.0,44.1,48,29.68,10.0,WNW,9.2,-,N/A,,Clear,290,2013-05-15 08:53:00
3:53 AM,63.0,44.1,50,29.68,10.0,SW,8.1,-,N/A,,Clear,230,2013-05-15 09:53:00
4:53 AM,59.0,43.0,55,29.70,10.0,SW,9.2,-,N/A,,Clear,220,2013-05-15 10:53:00
5:53 AM,62.1,43.0,50,29.69,10.0,WSW,5.8,-,N/A,,Clear,250,2013-05-15 11:53:00
6:53 AM,63.0,43.0,48,29.70,10.0,West,6.9,-,N/A,,Clear,270,2013-05-15 12:53:00
7:53 AM,69.1,43.0,39,29.71,10.0,West,13.8,-,N/A,,Clear,280,2013-05-15 13:53:00
8:53 AM,73.9,44.1,34,29.70,10.0,WNW,9.2,-,N/A,,Clear,290,2013-05-15 14:53:00
9:53 AM,82.9,42.1,24,29.68,10.0,NNW,5.8,-,N/A,,Clear,330,2013-05-15 15:53:00
10:53 AM,82.9,41.0,23,29.68,10.0,North,6.9,-,N/A,,Clear,360,2013-05-15 16:53:00
11:53 AM,87.1,39.0,18,29.67,10.0,Variable,4.6,-,N/A,,Clear,0,2013-05-15 17:53:00
12:53 PM,90.0,34.0,14,29.63,10.0,ESE,4.6,-,N/A,,Clear,120,2013-05-15 18:53:00
1:53 PM,91.0,30.0,11,29.61,10.0,North,12.7,-,N/A,,Mostly Cloudy,350,2013-05-15 19:53:00
2:53 PM,88.0,30.9,13,29.61,10.0,NNE,15.0,24.2,N/A,,Clear,30,2013-05-15 20:53:00
3:07 PM,87.8,28.4,12,29.77,10.0,East,9.2,31.1,N/A,,Clear,80,2013-05-15 21:07:00
3:53 PM,86.0,34.0,16,29.63,10.0,ENE,24.2,32.2,N/A,,Clear,60,2013-05-15 21:53:00
4:53 PM,86.0,36.0,17,29.63,10.0,NNE,17.3,-,N/A,,Clear,30,2013-05-15 22:53:00
5:53 PM,87.1,36.0,16,29.61,10.0,NNE,13.8,-,N/A,,Clear,20,2013-05-15 23:53:00
6:53 PM,82.9,36.0,19,29.62,10.0,NE,6.9,-,N/A,,Clear,40,2013-05-16 00:53:00
7:53 PM,78.1,39.9,25,29.64,10.0,North,3.5,-,N/A,,Clear,350,2013-05-16 01:53:00
8:53 PM,82.0,35.1,18,29.65,10.0,Calm,Calm,-,N/A,,Mostly Cloudy,0,2013-05-16 02:53:00
9:53 PM,78.1,39.0,25,29.68,10.0,North,8.1,-,N/A,,Overcast,350,2013-05-16 03:53:00
10:53 PM,72.0,46.0,40,29.70,10.0,North,19.6,-,N/A,,Scattered Clouds,360,2013-05-16 04:53:00
11:53 PM,66.9,48.9,52,29.72,10.0,NE,11.5,-,N/A,,Clear,40,2013-05-16 05:53:00